Time,TemperatureF,DewpointF,PressureIn,WindDirection,WindDirectionDegrees,WindSpeedMPH,WindSpeedGustMPH,Humidity,HourlyPrecipIn,Conditions,Clouds,dailyrainin,SolarRadiationWatts/m^2,SoftwareType,DateUTC
2013-05-01 00:00:00,38.3,35.1,30.48,South,182,0.0,0.0,88,0.00,,,0.06,0,Wunderground v.1.15,2013-05-01 07:00:00,
2013-05-01 00:10:00,38.0,34.8,30.48,South,182,0.0,0.0,88,0.00,,,0.00,0,Wunderground v.1.15,2013-05-01 07:10:00,
2013-05-01 00:20:00,37.7,34.8,30.48,South,182,0.0,0.0,89,0.00,,,0.00,0,Wunderground v.1.15,2013-05-01 07:20:00,
2013-05-01 00:30:00,37.5,34.6,30.49,South,182,0.0,0.0,89,0.00,,,0.00,0,Wunderground v.1.15,2013-05-01 07:30:00,
2013-05-01 00:35:00,37.4,34.5,30.49,South,182,0.0,0.0,89,0.00,,,0.00,0,Wunderground v.1.15,2013-05-01 07:35:00,
2013-05-01 00:40:00,37.2,34.3,30.49,South,182,0.0,2.0,89,0.00,,,0.00,0,Wunderground v.1.15,2013-05-01 07:40:00,
2013-05-01 00:50:00,36.9,34.0,30.49,South,182,0.0,0.0,89,0.00,,,0.00,0,Wunderground v.1.15,2013-05-01 07:50:00,
2013-05-01 01:00:00,36.6,33.9,30.50,South,182,0.0,0.0,90,0.00,,,0.00,0,Wunderground v.1.15,2013-05-01 08:00:00,
2013-05-01 01:10:00,36.5,33.8,30.50,South,182,1.0,1.0,90,0.00,,,0.00,0,Wunderground v.1.15,2013-05-01 08:10:00,
2013-05-01 01:15:00,36.4,33.7,30.50,South,182,0.0,1.0,90,0.00,,,0.00,0,Wunderground v.1.15,2013-05-01 08:15:00,
2013-05-01 01:20:00,36.3,33.6,30.50,South,182,0.0,0.0,90,0.00,,,0.00,0,Wunderground v.1.15,2013-05-01 08:20:00,
2013-05-01 01:25:00,36.2,33.5,30.50,South,182,0.0,0.0,90,0.00,,,0.00,0,Wunderground v.1.15,2013-05-01 08:25:00,
2013-05-01 01:30:00,36.0,33.4,30.50,South,182,0.0,0.0,90,0.00,,,0.00,0,Wunderground v.1.15,2013-05-01 08:30:00,
2013-05-01 01:35:00,35.9,33.3,30.51,South,182,0.0,0.0,90,0.00,,,0.00,0,Wunderground v.1.15,2013-05-01 08:35:00,
2013-05-01 01:45:00,35.5,32.9,30.51,South,182,0.0,0.0,90,0.00,,,0.00,0,Wunderground v.1.15,2013-05-01 08:45:00,
2013-05-01 01:55:00,35.2,32.8,30.52,South,182,0.0,0.0,91,0.00,,,0.00,0,Wunderground v.1.15,2013-05-01 08:55:00,
2013-05-01 02:00:00,35.0,32.6,30.52,South,182,0.0,0.0,91,0.00,,,0.00,0,Wunderground v.1.15,2013-05-01 09:00:00,
2013-05-01 02:10:00,34.8,32.4,30.52,South,182,0.0,0.0,91,0.00,,,0.00,0,Wunderground v.1.15,2013-05-01 09:10:00,
2013-05-01 02:15:00,34.8,32.4,30.52,South,182,0.0,0.0,91,0.00,,,0.00,0,Wunderground v.1.15,2013-05-01 09:15:00,
2013-05-01 02:20:00,34.7,32.3,30.52,South,182,0.0,0.0,91,0.00,,,0.00,0,Wunderground v.1.15,2013-05-01 09:20:00,
2013-05-01 02:25:00,34.6,32.5,30.52,South,182,0.0,0.0,92,0.00,,,0.00,0,Wunderground v.1.15,2013-05-01 09:25:00,
2013-05-01 02:30:00,34.6,32.5,30.52,South,182,0.0,0.0,92,0.00,,,0.00,0,Wunderground v.1.15,2013-05-01 09:30:00,
2013-05-01 02:40:00,34.5,32.4,30.53,South,182,0.0,0.0,92,0.00,,,0.00,0,Wunderground v.1.15,2013-05-01 09:40:00,
2013-05-01 02:45:00,34.4,32.3,30.52,South,182,0.0,0.0,92,0.00,,,0.00,0,Wunderground v.1.15,2013-05-01 09:45:00,
2013-05-01 02:50:00,34.3,32.2,30.53,South,182,0.0,0.0,92,0.00,,,0.00,0,Wunderground v.1.15,2013-05-01 09:50:00,
2013-05-01 03:00:00,34.1,32.0,30.53,South,182,0.0,0.0,92,0.00,,,0.00,0,Wunderground v.1.15,2013-05-01 10:00:00,
2013-05-01 03:10:00,33.8,31.7,30.53,South,182,0.0,0.0,92,0.00,,,0.00,0,Wunderground v.1.15,2013-05-01 10:10:00,
2013-05-01 03:15:00,33.8,31.7,30.53,South,182,0.0,0.0,92,0.00,,,0.00,0,Wunderground v.1.15,2013-05-01 10:15:00,
2013-05-01 03:20:00,33.8,32.0,30.53,South,182,0.0,0.0,93,0.00,,,0.00,0,Wunderground v.1.15,2013-05-01 10:20:00,
2013-05-01 03:25:00,33.8,32.0,30.53,South,182,0.0,0.0,93,0.00,,,0.00,0,Wunderground v.1.15,2013-05-01 10:25:00,
2013-05-01 03:35:00,33.9,32.1,30.53,South,182,1.0,1.0,93,0.00,,,0.00,0,Wunderground v.1.15,2013-05-01 10:35:00,
2013-05-01 03:40:00,33.9,32.1,30.53,South,182,1.0,1.0,93,0.00,,,0.00,0,Wunderground v.1.15,2013-05-01 10:40:00,
2013-05-01 03:45:00,33.9,31.8,30.53,South,182,0.0,1.0,92,0.00,,,0.00,0,Wunderground v.1.15,2013-05-01 10:45:00,
2013-05-01 03:50:00,33.8,31.7,30.53,South,182,0.0,0.0,92,0.00,,,0.00,0,Wunderground v.1.15,2013-05-01 10:50:00,
2013-05-01 03:55:00,33.6,31.5,30.53,South,182,0.0,0.0,92,0.00,,,0.00,0,Wunderground v.1.15,2013-05-01 10:55:00,
2013-05-01 04:00:00,33.4,31.3,30.53,South,182,0.0,0.0,92,0.00,,,0.00,0,Wunderground v.1.15,2013-05-01 11:00:00,
2013-05-01 04:10:00,33.2,31.1,30.54,South,182,0.0,0.0,92,0.00,,,0.00,0,Wunderground v.1.15,2013-05-01 11:10:00,
2013-05-01 04:20:00,33.1,31.3,30.54,South,182,0.0,0.0,93,0.00,,,0.00,0,Wunderground v.1.15,2013-05-01 11:20:00,
2013-05-01 04:30:00,32.9,31.1,30.55,South,182,0.0,0.0,93,0.00,,,0.00,0,Wunderground v.1.15,2013-05-01 11:30:00,
2013-05-01 04:35:00,32.9,31.1,30.55,South,182,0.0,0.0,93,0.00,,,0.00,0,Wunderground v.1.15,2013-05-01 11:35:00,
2013-05-01 04:40:00,32.8,31.0,30.55,South,182,0.0,0.0,93,0.00,,,0.00,0,Wunderground v.1.15,2013-05-01 11:40:00,
2013-05-01 04:45:00,32.7,30.9,30.55,South,182,0.0,0.0,93,0.00,,,0.00,0,Wunderground v.1.15,2013-05-01 11:45:00,
2013-05-01 04:55:00,32.6,30.8,30.55,South,182,0.0,0.0,93,0.00,,,0.00,0,Wunderground v.1.15,2013-05-01 11:55:00,
2013-05-01 05:00:00,32.5,30.7,30.55,South,182,0.0,0.0,93,0.00,,,0.00,0,Wunderground v.1.15,2013-05-01 12:00:00,
2013-05-01 05:10:00,32.6,30.8,30.56,South,182,0.0,0.0,93,0.00,,,0.00,0,Wunderground v.1.15,2013-05-01 12:10:00,
2013-05-01 05:15:00,32.6,30.8,30.56,South,182,0.0,0.0,93,0.00,,,0.00,0,Wunderground v.1.15,2013-05-01 12:15:00,
2013-05-01 05:25:00,32.4,30.6,30.56,South,182,0.0,0.0,93,0.00,,,0.00,0,Wunderground v.1.15,2013-05-01 12:25:00,
2013-05-01 05:30:00,32.3,30.5,30.56,South,182,0.0,0.0,93,0.00,,,0.00,0,Wunderground v.1.15,2013-05-01 12:30:00,
2013-05-01 05:40:00,32.2,30.4,30.56,South,182,0.0,0.0,93,0.00,,,0.00,0,Wunderground v.1.15,2013-05-01 12:40:00,
2013-05-01 05:50:00,32.3,30.5,30.56,South,182,0.0,0.0,93,0.00,,,0.00,0,Wunderground v.1.15,2013-05-01 12:50:00,
2013-05-01 06:00:00,32.3,30.5,30.57,South,182,0.0,0.0,93,0.00,,,0.00,7,Wunderground v.1.15,2013-05-01 13:00:00,
2013-05-01 06:10:00,32.2,30.4,30.57,South,182,0.0,0.0,93,0.00,,,0.00,12,Wunderground v.1.15,2013-05-01 13:10:00,
2013-05-01 06:15:00,32.1,30.3,30.57,South,182,0.0,0.0,93,0.00,,,0.00,14,Wunderground v.1.15,2013-05-01 13:15:00,
2013-05-01 06:20:00,32.1,30.3,30.57,South,182,0.0,0.0,93,0.00,,,0.00,16,Wunderground v.1.15,2013-05-01 13:20:00,
2013-05-01 06:30:00,32.2,30.4,30.58,South,182,0.0,0.0,93,0.00,,,0.00,21,Wunderground v.1.15,2013-05-01 13:30:00,
2013-05-01 06:45:00,32.6,31.1,30.58,South,182,0.0,0.0,94,0.00,,,0.00,26,Wunderground v.1.15,2013-05-01 13:45:00,
2013-05-01 06:50:00,32.6,31.1,30.58,South,182,0.0,0.0,94,0.00,,,0.00,28,Wunderground v.1.15,2013-05-01 13:50:00,
2013-05-01 07:00:00,33.0,31.5,30.58,South,182,0.0,0.0,94,0.00,,,0.00,32,Wunderground v.1.15,2013-05-01 14:00:00,
2013-05-01 07:10:00,33.5,32.0,30.59,South,182,0.0,0.0,94,0.00,,,0.00,33,Wunderground v.1.15,2013-05-01 14:10:00,
2013-05-01 07:20:00,34.1,32.6,30.60,South,182,0.0,1.0,94,0.00,,,0.00,40,Wunderground v.1.15,2013-05-01 14:20:00,
2013-05-01 07:30:00,35.2,33.4,30.59,South,182,1.0,1.0,93,0.00,,,0.00,192,Wunderground v.1.15,2013-05-01 14:30:00,
2013-05-01 07:50:00,37.5,34.6,30.60,South,182,0.0,0.0,89,0.00,,,0.00,250,Wunderground v.1.15,2013-05-01 14:50:00,
2013-05-01 08:00:00,39.2,35.4,30.59,South,182,1.0,1.0,86,0.00,,,0.00,279,Wunderground v.1.15,2013-05-01 15:00:00,
2013-05-01 08:10:00,40.6,35.8,30.60,South,182,0.0,0.0,83,0.00,,,0.00,306,Wunderground v.1.15,2013-05-01 15:10:00,
2013-05-01 08:20:00,41.2,36.4,30.60,South,182,0.0,0.0,83,0.00,,,0.00,339,Wunderground v.1.15,2013-05-01 15:20:00,
2013-05-01 08:25:00,42.0,36.3,30.60,South,182,0.0,0.0,80,0.00,,,0.00,359,Wunderground v.1.15,2013-05-01 15:25:00,
2013-05-01 08:35:00,43.8,37.1,30.59,South,182,0.0,0.0,77,0.00,,,0.00,383,Wunderground v.1.15,2013-05-01 15:35:00,
2013-05-01 08:40:00,44.4,37.3,30.60,South,182,0.0,0.0,76,0.00,,,0.00,404,Wunderground v.1.15,2013-05-01 15:40:00,
2013-05-01 08:50:00,44.7,36.9,30.60,South,188,1.0,1.0,74,0.00,,,0.00,438,Wunderground v.1.15,2013-05-01 15:50:00,
2013-05-01 09:00:00,45.6,36.7,30.60,NNW,344,1.0,1.0,71,0.00,,,0.00,468,Wunderground v.1.15,2013-05-01 16:00:00,
2013-05-01 09:10:00,46.0,36.8,30.60,NW,315,2.0,2.0,70,0.00,,,0.00,496,Wunderground v.1.15,2013-05-01 16:10:00,
2013-05-01 09:20:00,46.1,36.5,30.59,NW,313,1.0,1.0,69,0.00,,,0.00,524,Wunderground v.1.15,2013-05-01 16:20:00,
2013-05-01 09:30:00,46.9,36.5,30.59,NNW,336,2.0,2.0,67,0.00,,,0.00,555,Wunderground v.1.15,2013-05-01 16:30:00,
2013-05-01 09:35:00,47.3,36.9,30.59,WNW,302,1.0,4.0,67,0.00,,,0.00,575,Wunderground v.1.15,2013-05-01 16:35:00,
2013-05-01 09:45:00,48.1,38.4,30.59,NNW,337,3.0,5.0,69,0.00,,,0.00,598,Wunderground v.1.15,2013-05-01 16:45:00,
2013-05-01 09:50:00,49.2,38.3,30.59,North,360,2.0,2.0,66,0.00,,,0.00,580,Wunderground v.1.15,2013-05-01 16:50:00,
2013-05-01 10:00:00,48.8,37.6,30.59,WNW,289,3.0,3.0,65,0.00,,,0.00,636,Wunderground v.1.15,2013-05-01 17:00:00,
2013-05-01 10:10:00,50.0,38.3,30.59,West,272,2.0,3.0,64,0.00,,,0.00,659,Wunderground v.1.15,2013-05-01 17:10:00,
2013-05-01 10:20:00,50.8,37.8,30.58,NNW,328,2.0,3.0,61,0.00,,,0.00,679,Wunderground v.1.15,2013-05-01 17:20:00,
2013-05-01 10:30:00,52.2,37.9,30.58,NW,306,3.0,3.0,58,0.00,,,0.00,701,Wunderground v.1.15,2013-05-01 17:30:00,
2013-05-01 10:40:00,52.5,36.3,30.58,NNW,344,4.0,6.0,54,0.00,,,0.00,726,Wunderground v.1.15,2013-05-01 17:40:00,
2013-05-01 10:50:00,52.8,35.2,30.59,WNW,290,4.0,4.0,51,0.00,,,0.00,747,Wunderground v.1.15,2013-05-01 17:50:00,
2013-05-01 11:00:00,52.9,34.2,30.59,NW,325,5.0,6.0,49,0.00,,,0.00,766,Wunderground v.1.15,2013-05-01 18:00:00,
2013-05-01 11:10:00,53.4,33.7,30.59,NNW,338,5.0,5.0,47,0.00,,,0.00,777,Wunderground v.1.15,2013-05-01 18:10:00,
2013-05-01 11:20:00,53.9,34.6,30.59,WNW,288,6.0,6.0,48,0.00,,,0.00,795,Wunderground v.1.15,2013-05-01 18:20:00,
2013-05-01 11:25:00,54.0,34.7,30.59,NW,325,6.0,6.0,48,0.00,,,0.00,805,Wunderground v.1.15,2013-05-01 18:25:00,
2013-05-01 11:30:00,54.3,35.0,30.59,West,272,5.0,5.0,48,0.00,,,0.00,809,Wunderground v.1.15,2013-05-01 18:30:00,
2013-05-01 11:40:00,54.7,35.4,30.59,NNW,338,5.0,5.0,48,0.00,,,0.00,823,Wunderground v.1.15,2013-05-01 18:40:00,
2013-05-01 11:50:00,55.0,34.6,30.59,NNW,327,4.0,4.0,46,0.00,,,0.00,842,Wunderground v.1.15,2013-05-01 18:50:00,
2013-05-01 11:55:00,55.2,33.1,30.59,WSW,258,3.0,4.0,43,0.00,,,0.00,833,Wunderground v.1.15,2013-05-01 18:55:00,
2013-05-01 12:00:00,55.4,33.8,30.58,West,266,4.0,4.0,44,0.00,,,0.00,858,Wunderground v.1.15,2013-05-01 19:00:00,
2013-05-01 12:10:00,56.1,33.9,30.58,NW,311,4.0,4.0,43,0.00,,,0.00,860,Wunderground v.1.15,2013-05-01 19:10:00,
2013-05-01 12:15:00,56.0,34.4,30.58,NNW,333,3.0,6.0,44,0.00,,,0.00,870,Wunderground v.1.15,2013-05-01 19:15:00,
2013-05-01 12:25:00,57.1,34.8,30.58,WNW,301,4.0,4.0,43,0.00,,,0.00,872,Wunderground v.1.15,2013-05-01 19:25:00,
2013-05-01 12:30:00,57.3,34.4,30.58,NW,306,4.0,9.0,42,0.00,,,0.00,875,Wunderground v.1.15,2013-05-01 19:30:00,
2013-05-01 12:40:00,57.7,34.1,30.58,WNW,290,4.0,4.0,41,0.00,,,0.00,882,Wunderground v.1.15,2013-05-01 19:40:00,
2013-05-01 12:45:00,57.7,34.1,30.57,NW,311,4.0,7.0,41,0.00,,,0.00,879,Wunderground v.1.15,2013-05-01 19:45:00,
2013-05-01 12:50:00,58.3,33.4,30.57,North,360,5.0,5.0,39,0.00,,,0.00,882,Wunderground v.1.15,2013-05-01 19:50:00,
2013-05-01 12:55:00,58.4,33.5,30.57,NE,44,4.0,5.0,39,0.00,,,0.00,882,Wunderground v.1.15,2013-05-01 19:55:00,
2013-05-01 13:00:00,59.0,32.7,30.57,West,281,3.0,5.0,37,0.00,,,0.00,884,Wunderground v.1.15,2013-05-01 20:00:00,
2013-05-01 13:10:00,59.7,33.4,30.57,NNW,332,6.0,6.0,37,0.00,,,0.00,884,Wunderground v.1.15,2013-05-01 20:10:00,
2013-05-01 13:20:00,59.6,31.2,30.57,North,5,4.0,4.0,34,0.00,,,0.00,881,Wunderground v.1.15,2013-05-01 20:20:00,
2013-05-01 13:25:00,59.8,32.1,30.56,WSW,243,3.0,5.0,35,0.00,,,0.00,882,Wunderground v.1.15,2013-05-01 20:25:00,
2013-05-01 13:30:00,60.0,32.2,30.56,NNW,341,4.0,4.0,35,0.00,,,0.00,875,Wunderground v.1.15,2013-05-01 20:30:00,
2013-05-01 13:35:00,59.9,31.4,30.56,NNW,339,5.0,5.0,34,0.00,,,0.00,868,Wunderground v.1.15,2013-05-01 20:35:00,
2013-05-01 13:40:00,60.0,31.5,30.57,WNW,284,5.0,6.0,34,0.00,,,0.00,868,Wunderground v.1.15,2013-05-01 20:40:00,
2013-05-01 13:50:00,60.7,31.4,30.56,WNW,288,5.0,5.0,33,0.00,,,0.00,865,Wunderground v.1.15,2013-05-01 20:50:00,
2013-05-01 14:00:00,60.9,30.8,30.56,NNW,338,5.0,7.0,32,0.00,,,0.00,868,Wunderground v.1.15,2013-05-01 21:00:00,
2013-05-01 14:10:00,61.7,31.5,30.57,NW,318,5.0,5.0,32,0.00,,,0.00,789,Wunderground v.1.15,2013-05-01 21:10:00,
2013-05-01 14:15:00,61.8,31.6,30.56,NNW,342,6.0,13.0,32,0.00,,,0.00,847,Wunderground v.1.15,2013-05-01 21:15:00,
2013-05-01 14:20:00,61.6,31.4,30.56,NW,304,6.0,6.0,32,0.00,,,0.00,849,Wunderground v.1.15,2013-05-01 21:20:00,
2013-05-01 14:25:00,61.4,32.0,30.56,WNW,292,5.0,6.0,33,0.00,,,0.00,830,Wunderground v.1.15,2013-05-01 21:25:00,
2013-05-01 14:30:00,61.4,30.5,30.56,West,271,5.0,6.0,31,0.00,,,0.00,831,Wunderground v.1.15,2013-05-01 21:30:00,
2013-05-01 14:35:00,61.7,32.3,30.56,NW,320,5.0,6.0,33,0.00,,,0.00,833,Wunderground v.1.15,2013-05-01 21:35:00,
2013-05-01 14:45:00,62.6,30.7,30.56,WSW,257,5.0,5.0,30,0.00,,,0.00,824,Wunderground v.1.15,2013-05-01 21:45:00,
2013-05-01 14:50:00,62.7,31.6,30.56,NNW,338,5.0,5.0,31,0.00,,,0.00,810,Wunderground v.1.15,2013-05-01 21:50:00,
2013-05-01 15:00:00,62.8,30.9,30.56,NNW,329,4.0,4.0,30,0.00,,,0.00,738,Wunderground v.1.15,2013-05-01 22:00:00,
2013-05-01 15:10:00,63.1,29.4,30.56,West,263,4.0,5.0,28,0.00,,,0.00,770,Wunderground v.1.15,2013-05-01 22:10:00,
2013-05-01 15:15:00,63.3,30.5,30.56,NNW,336,4.0,5.0,29,0.00,,,0.00,780,Wunderground v.1.15,2013-05-01 22:15:00,
2013-05-01 15:25:00,63.9,31.0,30.56,NNW,328,5.0,6.0,29,0.00,,,0.00,738,Wunderground v.1.15,2013-05-01 22:25:00,
2013-05-01 15:35:00,64.3,30.5,30.56,NW,325,5.0,9.0,28,0.00,,,0.00,724,Wunderground v.1.15,2013-05-01 22:35:00,
2013-05-01 15:40:00,64.2,31.3,30.56,North,5,4.0,4.0,29,0.00,,,0.00,703,Wunderground v.1.15,2013-05-01 22:40:00,
2013-05-01 15:50:00,64.0,30.2,30.55,WNW,300,4.0,4.0,28,0.00,,,0.00,707,Wunderground v.1.15,2013-05-01 22:50:00,
2013-05-01 16:00:00,64.0,31.1,30.55,NNW,344,5.0,6.0,29,0.00,,,0.00,686,Wunderground v.1.15,2013-05-01 23:00:00,
2013-05-01 16:10:00,65.3,29.5,30.55,NW,304,4.0,6.0,26,0.00,,,0.00,638,Wunderground v.1.15,2013-05-01 23:10:00,
2013-05-01 16:15:00,65.5,29.7,30.55,NNW,341,4.0,6.0,26,0.00,,,0.00,645,Wunderground v.1.15,2013-05-01 23:15:00,
2013-05-01 16:20:00,65.2,29.4,30.55,WNW,287,4.0,4.0,26,0.00,,,0.00,599,Wunderground v.1.15,2013-05-01 23:20:00,
2013-05-01 16:30:00,64.8,28.1,30.55,West,277,4.0,4.0,25,0.00,,,0.00,598,Wunderground v.1.15,2013-05-01 23:30:00,
2013-05-01 16:35:00,65.0,28.3,30.55,NW,319,4.0,6.0,25,0.00,,,0.00,582,Wunderground v.1.15,2013-05-01 23:35:00,
2013-05-01 16:40:00,65.3,28.5,30.54,WNW,288,4.0,4.0,25,0.00,,,0.00,541,Wunderground v.1.15,2013-05-01 23:40:00,
2013-05-01 16:45:00,65.4,28.6,30.54,West,279,4.0,6.0,25,0.00,,,0.00,543,Wunderground v.1.15,2013-05-01 23:45:00,
2013-05-01 16:50:00,65.4,26.6,30.54,NNW,342,4.0,5.0,23,0.00,,,0.00,515,Wunderground v.1.15,2013-05-01 23:50:00,
2013-05-01 17:00:00,65.9,27.0,30.54,NW,317,3.0,3.0,23,0.00,,,0.00,464,Wunderground v.1.15,2013-05-02 00:00:00,
2013-05-01 17:10:00,65.7,25.8,30.54,NNW,344,3.0,4.0,22,0.00,,,0.00,454,Wunderground v.1.15,2013-05-02 00:10:00,
2013-05-01 17:20:00,65.7,26.9,30.54,NNW,330,4.0,4.0,23,0.00,,,0.00,446,Wunderground v.1.15,2013-05-02 00:20:00,
2013-05-01 17:25:00,65.7,24.7,30.53,West,271,4.0,4.0,21,0.00,,,0.00,434,Wunderground v.1.15,2013-05-02 00:25:00,
2013-05-01 17:30:00,65.7,25.8,30.53,NW,305,3.0,3.0,22,0.00,,,0.00,431,Wunderground v.1.15,2013-05-02 00:30:00,
2013-05-01 17:35:00,66.1,27.2,30.53,NW,323,2.0,3.0,23,0.00,,,0.00,406,Wunderground v.1.15,2013-05-02 00:35:00,
2013-05-01 17:45:00,66.4,27.4,30.53,WNW,294,3.0,4.0,23,0.00,,,0.00,376,Wunderground v.1.15,2013-05-02 00:45:00,
2013-05-01 17:50:00,66.1,28.2,30.53,WNW,300,3.0,4.0,24,0.00,,,0.00,355,Wunderground v.1.15,2013-05-02 00:50:00,
2013-05-01 17:55:00,65.6,26.8,30.53,NW,304,4.0,4.0,23,0.00,,,0.00,315,Wunderground v.1.15,2013-05-02 00:55:00,
2013-05-01 18:00:00,65.3,28.5,30.53,NW,315,4.0,5.0,25,0.00,,,0.00,269,Wunderground v.1.15,2013-05-02 01:00:00,
2013-05-01 18:10:00,65.0,30.2,30.53,NW,325,4.0,8.0,27,0.00,,,0.00,288,Wunderground v.1.15,2013-05-02 01:10:00,
2013-05-01 18:20:00,65.2,32.1,30.53,NW,309,4.0,5.0,29,0.00,,,0.00,262,Wunderground v.1.15,2013-05-02 01:20:00,
2013-05-01 18:25:00,65.0,31.9,30.53,NW,305,4.0,5.0,29,0.00,,,0.00,243,Wunderground v.1.15,2013-05-02 01:25:00,
2013-05-01 18:30:00,64.9,32.7,30.53,WNW,290,4.0,4.0,30,0.00,,,0.00,234,Wunderground v.1.15,2013-05-02 01:30:00,
2013-05-01 18:35:00,64.9,32.7,30.53,NW,317,3.0,5.0,30,0.00,,,0.00,229,Wunderground v.1.15,2013-05-02 01:35:00,
2013-05-01 18:45:00,64.3,33.0,30.53,WNW,300,4.0,6.0,31,0.00,,,0.00,193,Wunderground v.1.15,2013-05-02 01:45:00,
2013-05-01 18:50:00,64.0,33.5,30.53,West,262,4.0,5.0,32,0.00,,,0.00,181,Wunderground v.1.15,2013-05-02 01:50:00,
2013-05-01 18:55:00,64.1,33.6,30.53,NW,320,4.0,6.0,32,0.00,,,0.00,162,Wunderground v.1.15,2013-05-02 01:55:00,
2013-05-01 19:00:00,64.2,33.7,30.53,NW,304,4.0,4.0,32,0.00,,,0.00,148,Wunderground v.1.15,2013-05-02 02:00:00,
2013-05-01 19:10:00,64.0,34.3,30.53,West,279,3.0,3.0,33,0.00,,,0.00,121,Wunderground v.1.15,2013-05-02 02:10:00,
2013-05-01 19:15:00,63.8,34.9,30.53,WNW,285,3.0,3.0,34,0.00,,,0.00,105,Wunderground v.1.15,2013-05-02 02:15:00,
2013-05-01 19:25:00,63.6,34.7,30.53,WNW,294,3.0,3.0,34,0.00,,,0.00,76,Wunderground v.1.15,2013-05-02 02:25:00,
2013-05-01 19:30:00,63.3,35.2,30.54,WNW,282,2.0,2.0,35,0.00,,,0.00,62,Wunderground v.1.15,2013-05-02 02:30:00,
2013-05-01 19:35:00,63.1,35.7,30.54,NNW,328,2.0,2.0,36,0.00,,,0.00,46,Wunderground v.1.15,2013-05-02 02:35:00,
2013-05-01 19:40:00,62.6,35.9,30.54,West,264,1.0,2.0,37,0.00,,,0.00,39,Wunderground v.1.15,2013-05-02 02:40:00,
2013-05-01 19:45:00,62.0,36.1,30.54,West,264,2.0,2.0,38,0.00,,,0.00,26,Wunderground v.1.15,2013-05-02 02:45:00,
2013-05-01 19:50:00,61.4,36.8,30.54,West,264,2.0,2.0,40,0.00,,,0.00,23,Wunderground v.1.15,2013-05-02 02:50:00,
2013-05-01 19:55:00,61.0,37.1,30.54,West,264,1.0,2.0,41,0.00,,,0.00,18,Wunderground v.1.15,2013-05-02 02:55:00,
2013-05-01 20:00:00,60.4,36.6,30.54,West,264,0.0,0.0,41,0.00,,,0.00,14,Wunderground v.1.15,2013-05-02 03:00:00,
2013-05-01 20:10:00,59.5,37.6,30.54,West,264,0.0,0.0,44,0.00,,,0.00,7,Wunderground v.1.15,2013-05-02 03:10:00,
2013-05-01 20:20:00,58.8,38.6,30.54,West,264,0.0,0.0,47,0.00,,,0.00,0,Wunderground v.1.15,2013-05-02 03:20:00,
2013-05-01 20:25:00,58.4,40.3,30.54,West,264,0.0,0.0,51,0.00,,,0.00,0,Wunderground v.1.15,2013-05-02 03:25:00,
2013-05-01 20:30:00,57.9,40.9,30.55,West,264,0.0,0.0,53,0.00,,,0.00,0,Wunderground v.1.15,2013-05-02 03:30:00,
2013-05-01 20:35:00,57.0,40.5,30.55,West,264,0.0,1.0,54,0.00,,,0.00,0,Wunderground v.1.15,2013-05-02 03:35:00,
2013-05-01 20:40:00,56.2,40.7,30.55,SW,232,0.0,0.0,56,0.00,,,0.00,0,Wunderground v.1.15,2013-05-02 03:40:00,
2013-05-01 20:50:00,55.1,40.1,30.55,SW,232,0.0,0.0,57,0.00,,,0.00,0,Wunderground v.1.15,2013-05-02 03:50:00,
2013-05-01 20:55:00,54.9,40.8,30.55,SW,232,0.0,0.0,59,0.00,,,0.00,0,Wunderground v.1.15,2013-05-02 03:55:00,
2013-05-01 21:00:00,54.6,40.6,30.56,SW,232,0.0,0.0,59,0.00,,,0.00,0,Wunderground v.1.15,2013-05-02 04:00:00,
2013-05-01 21:05:00,54.2,40.6,30.56,SW,232,0.0,0.0,60,0.00,,,0.00,0,Wunderground v.1.15,2013-05-02 04:05:00,
2013-05-01 21:10:00,54.0,40.8,30.56,SW,232,0.0,0.0,61,0.00,,,0.00,0,Wunderground v.1.15,2013-05-02 04:10:00,
2013-05-01 21:15:00,53.6,40.9,30.56,SW,232,0.0,0.0,62,0.00,,,0.00,0,Wunderground v.1.15,2013-05-02 04:15:00,
2013-05-01 21:20:00,53.3,40.6,30.56,SW,232,0.0,0.0,62,0.00,,,0.00,0,Wunderground v.1.15,2013-05-02 04:20:00,
2013-05-01 21:25:00,53.0,40.3,30.56,SW,232,0.0,0.0,62,0.00,,,0.00,0,Wunderground v.1.15,2013-05-02 04:25:00,
2013-05-01 21:35:00,52.4,40.6,30.56,SW,232,0.0,0.0,64,0.00,,,0.00,0,Wunderground v.1.15,2013-05-02 04:35:00,
2013-05-01 21:40:00,52.1,40.3,30.56,SW,232,0.0,0.0,64,0.00,,,0.00,0,Wunderground v.1.15,2013-05-02 04:40:00,
2013-05-01 21:50:00,51.6,41.0,30.56,SW,232,0.0,0.0,67,0.00,,,0.00,0,Wunderground v.1.15,2013-05-02 04:50:00,
2013-05-01 21:55:00,51.4,40.8,30.57,SW,232,0.0,0.0,67,0.00,,,0.00,0,Wunderground v.1.15,2013-05-02 04:55:00,
2013-05-01 22:00:00,51.1,40.9,30.57,SW,232,0.0,0.0,68,0.00,,,0.00,0,Wunderground v.1.15,2013-05-02 05:00:00,
2013-05-01 22:10:00,50.6,40.4,30.57,SW,232,0.0,0.0,68,0.00,,,0.00,0,Wunderground v.1.15,2013-05-02 05:10:00,
2013-05-01 22:15:00,50.4,40.6,30.57,SW,232,0.0,0.0,69,0.00,,,0.00,0,Wunderground v.1.15,2013-05-02 05:15:00,
2013-05-01 22:20:00,50.1,40.7,30.57,SW,232,0.0,0.0,70,0.00,,,0.00,0,Wunderground v.1.15,2013-05-02 05:20:00,
2013-05-01 22:25:00,49.9,40.9,30.57,SW,232,0.0,0.0,71,0.00,,,0.00,0,Wunderground v.1.15,2013-05-02 05:25:00,
2013-05-01 22:30:00,49.7,41.0,30.57,SW,232,0.0,0.0,72,0.00,,,0.00,0,Wunderground v.1.15,2013-05-02 05:30:00,
2013-05-01 22:40:00,49.3,40.7,30.57,SW,232,0.0,0.0,72,0.00,,,0.00,0,Wunderground v.1.15,2013-05-02 05:40:00,
2013-05-01 22:50:00,48.9,40.3,30.57,SW,232,0.0,0.0,72,0.00,,,0.00,0,Wunderground v.1.15,2013-05-02 05:50:00,
2013-05-01 22:55:00,48.8,40.5,30.57,SW,232,0.0,0.0,73,0.00,,,0.00,0,Wunderground v.1.15,2013-05-02 05:55:00,
2013-05-01 23:00:00,48.6,40.3,30.57,SW,232,0.0,0.0,73,0.00,,,0.00,0,Wunderground v.1.15,2013-05-02 06:00:00,
2013-05-01 23:10:00,48.3,40.4,30.57,SW,232,0.0,0.0,74,0.00,,,0.00,0,Wunderground v.1.15,2013-05-02 06:10:00,
2013-05-01 23:15:00,48.1,40.2,30.57,SW,232,0.0,0.0,74,0.00,,,0.00,0,Wunderground v.1.15,2013-05-02 06:15:00,
2013-05-01 23:25:00,48.0,40.5,30.57,SW,232,0.0,1.0,75,0.00,,,0.00,0,Wunderground v.1.15,2013-05-02 06:25:00,
2013-05-01 23:30:00,47.8,40.3,30.57,SW,232,0.0,0.0,75,0.00,,,0.00,0,Wunderground v.1.15,2013-05-02 06:30:00,
2013-05-01 23:40:00,47.6,40.4,30.57,SW,232,0.0,0.0,76,0.00,,,0.00,0,Wunderground v.1.15,2013-05-02 06:40:00,
2013-05-01 23:45:00,47.4,40.2,30.57,SW,232,0.0,0.0,76,0.00,,,0.00,0,Wunderground v.1.15,2013-05-02 06:45:00,
2013-05-01 23:50:00,47.2,40.4,30.57,SW,232,0.0,0.0,77,0.00,,,0.00,0,Wunderground v.1.15,2013-05-02 06:50:00,
2013-05-01 23:55:00,47.0,40.2,30.57,SW,232,0.0,0.0,77,0.00,,,0.00,0,Wunderground v.1.15,2013-05-02 06:55:00,